Latest Coastal Weather Observations for Aireys Inlet

IDV60701

Issued at 7:42 pm EST Saturday 27 May 2017 (issued every 10 minutes, with the page automatically refreshed every 10 minutes)

About coastal observations | Map of coastal stations | Coastal observations for VIC | Marine services | Other Formats
Station Details ID: 090180 Name: AIREYS INLET Lat: -38.46 Lon: 144.09 Height: 105.0 m
Data from the previous 72 hours. | See also: Recent months at Aireys Inlet
Date/Time
EST
Temp
°C
Wind Pressure Rain since
9am
mm
Weather Cloud Vis
km
Sea
Height
m
Swell
Dir  Spd
kts
Gust
kts
hPa Trend Height
m
Period
s
Dir
27/07:30pm 14.7 N 12 20 - - 0.2 - - - - - - -
27/07:15pm 14.8 N 15 27 - - 0.2 - - - - - - -
27/07:00pm 15.0 N 16 25 - - 0.2 - - - - - - -
27/06:30pm 15.2 N 14 23 - - 0.2 - - - - - - -
27/06:00pm 14.6 NNE 12 19 - - 0.2 Recent precip. - - - - - -
27/05:30pm 14.8 N 11 19 - - 0.2 - - - - - - -
27/05:00pm 15.9 N 11 19 - - 0.0 - - - - - - -
27/04:30pm 16.0 N 13 20 - - 0.0 - - - - - - -
27/04:00pm 16.0 NNE 11 17 - - 0.0 - - - - - - -
27/03:30pm 16.0 NNE 9 15 - - 0.0 - - - - - - -
27/03:00pm 16.2 N 12 19 - - 0.0 - - - - - - -
27/02:30pm 16.5 N 11 21 - - 0.0 - - - - - - -
27/02:00pm 16.7 N 12 20 - - 0.0 - - - - - - -
27/01:30pm 17.3 N 13 21 - - 0.0 - - - - - - -
27/01:00pm 17.1 N 11 17 - - 0.0 - - - - - - -
27/12:30pm 17.1 NNW 15 25 - - 0.0 - - - - - - -
27/12:03pm 17.0 NNW 16 27 - - 0.0 - - - - - - -
27/12:00pm 17.1 NNW 16 26 - - 0.0 - - - - - - -
27/11:30am 16.5 NNW 16 26 - - 0.0 - - - - - - -
27/11:00am 15.6 NNW 18 29 - - 0.0 - - - - - - -
27/10:39am 15.1 NNW 15 25 - - 0.0 - - - - - - -
27/10:30am 15.2 NNW 14 22 - - 0.0 - - - - - - -
27/10:02am 14.4 NNW 15 25 - - 0.0 - - - - - - -
27/10:00am 14.4 NNW 15 24 - - 0.0 - - - - - - -
27/09:30am 13.8 NNW 16 26 - - 0.0 - - - - - - -
27/09:12am 13.4 NNW 16 27 - - 0.0 - - - - - - -
27/09:00am 13.4 NNW 16 25 - - 0.0 - - - - - - -
27/08:45am 13.3 NNW 16 26 - - 0.0 - - - - - - -
27/08:30am 13.1 NNW 15 24 - - 0.0 - - - - - - -
27/08:00am 12.6 N 14 20 - - 0.0 - - - - - - -
27/07:35am 12.4 N 15 26 - - 0.0 - - - - - - -
27/07:30am 12.3 N 16 26 - - 0.0 - - - - - - -
27/07:00am 12.2 NNW 15 25 - - 0.0 - - - - - - -
27/06:47am 12.4 NNW 15 27 - - 0.0 - - - - - - -
27/06:30am 12.3 NNW 13 22 - - 0.0 - - - - - - -
27/06:00am 12.1 NNW 12 18 - - 0.0 - - - - - - -
27/05:30am 11.9 N 10 17 - - 0.0 - - - - - - -
27/05:00am 11.5 N 8 13 - - 0.0 - - - - - - -
27/04:30am 11.6 N 11 16 - - 0.0 - - - - - - -
27/04:00am 11.4 N 12 19 - - 0.0 - - - - - - -
27/03:30am 11.4 N 12 20 - - 0.0 - - - - - - -
27/03:00am 11.2 N 12 21 - - 0.0 - - - - - - -
27/02:30am 11.0 NNW 11 17 - - 0.0 - - - - - - -
27/02:00am 10.6 NNW 9 12 - - 0.0 - - - - - - -
27/01:30am 10.3 NNW 7 12 - - 0.0 - - - - - - -
27/01:00am 10.3 NNW 6 9 - - 0.0 - - - - - - -
27/12:30am 10.4 NNW 7 11 - - 0.0 - - - - - - -
27/12:00am 10.2 NNW 6 10 - - 0.0 - - - - - - -
 
Date/Time
EST
Temp
°C
Wind Pressure Rain since
9am
mm
Weather Cloud Vis
km
Sea
Height
m
Swell
Dir  Spd
kts
Gust
kts
hPa Trend Height
m
Period
s
Dir
26/11:30pm 10.5 NNW 6 9 - - 0.0 - - - - - - -
26/11:00pm 10.4 NNW 7 9 - - 0.0 - - - - - - -
26/10:30pm 10.6 NNW 6 9 - - 0.0 - - - - - - -
26/10:00pm 10.0 NNW 7 8 - - 0.0 - - - - - - -
26/09:30pm 8.6 NNE 5 5 - - 0.0 - - - - - - -
26/09:00pm 8.5 N 4 5 - - 0.0 - - - - - - -
26/08:30pm 8.4 NNW 4 5 - - 0.0 - - - - - - -
26/08:00pm 9.2 NNW 5 6 - - 0.0 - - - - - - -
26/07:30pm 9.1 NNW 5 7 - - 0.0 - - - - - - -
26/07:00pm 9.1 NNW 4 5 - - 0.0 - - - - - - -
26/06:30pm 9.4 NNW 4 5 - - 0.0 - - - - - - -
26/06:00pm 9.7 NNW 5 7 - - 0.0 - - - - - - -
26/05:30pm 11.2 NNW 2 3 - - 0.0 - - - - - - -
26/05:00pm 11.8 CALM 0 0 - - 0.0 - - - - - - -
26/04:30pm 12.7 ENE 1 3 - - 0.0 - - - - - - -
26/04:00pm 13.2 E 2 3 - - 0.0 - - - - - - -
26/03:30pm 13.9 E 2 3 - - 0.0 - - - - - - -
26/03:00pm 14.2 ESE 2 3 - - 0.0 - - - - - - -
26/02:30pm 14.9 SSE 2 5 - - 0.0 - - - - - - -
26/02:00pm 14.4 SSE 2 4 - - 0.0 - - - - - - -
26/01:30pm 14.4 S 3 5 - - 0.0 - - - - - - -
26/01:00pm 15.6 S 2 4 - - 0.0 - - - - - - -
26/12:30pm 16.1 ENE 1 3 - - 0.0 - - - - - - -
26/12:00pm 15.4 N 2 4 - - 0.0 - - - - - - -
26/11:30am 15.9 NNE 1 3 - - 0.0 - - - - - - -
26/11:00am 14.5 WSW 3 4 - - 0.0 - - - - - - -
26/10:30am 13.5 WNW 2 3 - - 0.0 - - - - - - -
26/10:00am 12.3 WNW 3 5 - - 0.0 - - - - - - -
26/09:30am 11.5 WNW 4 5 - - 0.0 - - - - - - -
26/09:00am 10.0 NW 5 7 - - 1.8 - - - - - - -
26/08:30am 9.2 NW 7 9 - - 1.8 - - - - - - -
26/08:00am 8.8 NW 8 10 - - 1.8 - - - - - - -
26/07:30am 8.6 NW 6 8 - - 1.8 - - - - - - -
26/07:00am 9.0 NW 7 8 - - 1.8 - - - - - - -
26/06:30am 9.4 NW 9 12 - - 1.8 - - - - - - -
26/06:00am 10.0 WNW 8 10 - - 1.8 - - - - - - -
26/05:30am 10.3 WNW 7 10 - - 1.8 - - - - - - -
26/05:00am 10.6 WNW 6 7 - - 1.8 - - - - - - -
26/04:30am 10.5 WNW 7 9 - - 1.8 - - - - - - -
26/04:00am 10.4 WNW 8 10 - - 1.8 - - - - - - -
26/03:30am 10.9 WNW 7 9 - - 1.8 - - - - - - -
26/03:00am 11.7 WNW 6 8 - - 1.8 - - - - - - -
26/02:30am 11.8 W 3 4 - - 1.8 - - - - - - -
26/02:00am 11.9 WSW 4 6 - - 1.8 - - - - - - -
26/01:30am 11.9 W 7 9 - - 1.8 - - - - - - -
26/01:00am 11.7 WSW 9 11 - - 1.8 - - - - - - -
26/12:30am 12.5 SW 5 11 - - 1.8 - - - - - - -
26/12:00am 12.5 NW 2 3 - - 1.8 Recent precip. - - - - - -
 
Date/Time
EST
Temp
°C
Wind Pressure Rain since
9am
mm
Weather Cloud Vis
km
Sea
Height
m
Swell
Dir  Spd
kts
Gust
kts
hPa Trend Height
m
Period
s
Dir
25/11:30pm 12.6 NW 2 3 - - 1.8 - - - - - - -
25/11:00pm 12.7 SW 4 6 - - 1.6 - - - - - - -
25/10:30pm 13.0 SSW 6 10 - - 1.4 - - - - - - -
25/10:00pm 13.2 SW 1 3 - - 0.8 - - - - - - -
25/09:30pm 13.1 SSW 2 4 - - 0.4 - - - - - - -
25/09:00pm 13.3 WSW 8 13 - - 0.4 Rain - - - - - -
25/08:30pm 13.6 NW 12 17 - - 0.2 - - - - - - -
25/08:00pm 13.5 NW 11 19 - - 0.2 - - - - - - -
25/07:30pm 13.8 NW 15 21 - - 0.2 - - - - - - -
25/07:00pm 13.7 NW 15 22 - - 0.2 - - - - - - -
25/06:30pm 13.9 NW 13 21 - - 0.2 - - - - - - -
25/06:00pm 13.9 NW 11 17 - - 0.2 - - - - - - -
25/05:30pm 13.9 NW 11 17 - - 0.2 - - - - - - -
25/05:00pm 14.1 NW 12 16 - - 0.2 - - - - - - -
25/04:30pm 13.7 NW 13 20 - - 0.2 - - - - - - -
25/04:00pm 14.1 NW 13 23 - - 0.0 - - - - - - -
25/03:30pm 14.6 NW 14 21 - - 0.0 - - - - - - -
25/03:00pm 14.8 NW 19 27 - - 0.0 - - - - - - -
25/02:30pm 15.1 NW 18 29 - - 0.0 - - - - - - -
25/02:00pm 16.2 NW 22 32 - - 0.0 - - - - - - -
25/01:30pm 16.8 NW 23 33 - - 0.0 - - - - - - -
25/01:05pm 16.3 NW 21 31 - - 0.0 - - - - - - -
25/01:00pm 16.5 NW 23 31 - - 0.0 - - - - - - -
25/12:30pm 16.0 NW 19 31 - - 0.0 - - - - - - -
25/12:07pm 16.0 NW 16 26 - - 0.0 - - - - - - -
25/12:00pm 15.7 NW 17 26 - - 0.0 - - - - - - -
25/11:44am 15.4 NW 15 26 - - 0.0 - - - - - - -
25/11:30am 15.8 NW 13 25 - - 0.0 - - - - - - -
25/11:00am 15.2 NW 10 18 - - 0.0 - - - - - - -
25/10:30am 15.2 NW 8 15 - - 0.0 - - - - - - -
25/10:00am 14.3 NW 7 15 - - 0.0 - - - - - - -
25/09:30am 13.5 NW 7 14 - - 0.0 - - - - - - -
25/09:00am 12.9 NW 6 10 - - 0.2 - - - - - - -
25/08:30am 12.3 NNW 5 9 - - 0.2 - - - - - - -
25/08:00am 11.8 NW 4 7 - - 0.2 - - - - - - -
25/07:30am 12.1 WNW 4 11 - - 0.2 - - - - - - -
25/07:00am 11.8 NNE 3 5 - - 0.2 - - - - - - -
25/06:30am 12.2 NNW 6 10 - - 0.2 - - - - - - -
25/06:00am 12.3 NW 10 16 - - 0.2 - - - - - - -
25/05:30am 11.7 W 4 8 - - 0.2 - - - - - - -
25/05:00am 11.4 WNW 4 9 - - 0.2 - - - - - - -
25/04:30am 11.7 WNW 6 12 - - 0.2 - - - - - - -
25/04:00am 11.7 WNW 5 10 - - 0.2 - - - - - - -
25/03:30am 11.6 NNW 6 11 - - 0.2 - - - - - - -
25/03:00am 11.7 N 5 9 - - 0.2 - - - - - - -
25/02:30am 11.8 NW 5 7 - - 0.2 - - - - - - -
25/02:00am 11.6 N 3 5 - - 0.2 - - - - - - -
25/01:30am 11.8 N 5 8 - - 0.2 - - - - - - -
25/01:00am 11.5 NW 7 11 - - 0.2 - - - - - - -
25/12:30am 11.3 NW 5 9 - - 0.2 - - - - - - -
25/12:00am 11.2 NW 6 8 - - 0.2 - - - - - - -
 
Date/Time
EST
Temp
°C
Wind Pressure Rain since
9am
mm
Weather Cloud Vis
km
Sea
Height
m
Swell
Dir  Spd
kts
Gust
kts
hPa Trend Height
m
Period
s
Dir
24/11:30pm 11.3 NW 7 11 - - 0.2 - - - - - - -
24/11:00pm 11.6 WNW 7 9 - - 0.2 - - - - - - -
24/10:30pm 11.2 NW 3 5 - - 0.2 - - - - - - -
24/10:00pm 11.3 W 4 7 - - 0.2 - - - - - - -
24/09:30pm 11.4 SW 3 7 - - 0.2 - - - - - - -
24/09:00pm 11.7 W 7 11 - - 0.2 - - - - - - -
24/08:30pm 12.1 WNW 9 17 - - 0.2 - - - - - - -
24/08:00pm 12.0 W 9 13 - - 0.2 - - - - - - -

Other Formats:

Comma delimited format used in spreadsheet applications
http://www.bom.gov.au/fwo/IDV60701/IDV60701.94846.axf

JavaScript Object Notation format (JSON) in row-major order
http://www.bom.gov.au/fwo/IDV60701/IDV60701.94846.json